Terminal Aerodrome Forecast
Issued by NWS

Home | Current Version | Previous Version | Text Only | Print | Product List | Glossary On
Versions: 1 2 3 4 5 6 7 8 9 10 11 12 13
000
FTUS43 KICT 230858 AAB
TAFCNU
TAF AMD
KCNU 230858Z 2309/2406 15010KT P6SM -RA VCTS SCT060CB BKN150
      TEMPO 2309/2312 VRB15G25KT TSRA BKN080CB
     FM231200 09005KT P6SM BKN250=

USA.gov is the U.S. government's official web portal to all federal, state and local government web resources and services.